Time;durP1;ratioP1;P1;durP2;ratioP2;P2;SDS_P1;SDS_P2;PMS_P1;PMS_P2;Temp;Humidity;BMP_temperature;BMP_pressure;BME280_temperature;BME280_humidity;BME280_pressure;Samples;Min_cycle;Max_cycle;Signal;HPM_P1;HPM_P2
2021/11/09 00:00:00;;;;;;;12.40;11.80;;;20.80;97.10;;;;;;4957352;28;20472;-56
2021/11/09 00:02:27;;;;;;;11.40;11.03;;;20.70;97.30;;;;;;4958381;29;20464;-59
2021/11/09 00:04:56;;;;;;;11.93;11.53;;;20.70;97.50;;;;;;4958538;29;21057;-60
2021/11/09 00:07:28;;;;;;;12.30;11.73;;;20.60;97.80;;;;;;4958325;29;20453;-59
2021/11/09 00:09:59;;;;;;;11.97;11.57;;;20.60;98.10;;;;;;4958380;29;20481;-58
2021/11/09 00:12:28;;;;;;;12.70;12.10;;;20.50;98.30;;;;;;4958476;29;20445;-59
2021/11/09 00:14:56;;;;;;;11.93;11.50;;;20.40;98.60;;;;;;4960818;28;20483;-60
2021/11/09 00:17:23;;;;;;;11.83;11.40;;;20.40;98.90;;;;;;4960788;29;20460;-59
2021/11/09 00:19:51;;;;;;;12.00;11.60;;;20.40;99.10;;;;;;4960592;29;20500;-62
2021/11/09 00:22:17;;;;;;;12.43;12.03;;;20.30;99.20;;;;;;4961972;29;20463;-62
2021/11/09 00:24:46;;;;;;;12.73;12.23;;;20.30;99.30;;;;;;4961962;29;20487;-62
2021/11/09 00:27:13;;;;;;;12.50;12.10;;;20.30;99.40;;;;;;4961853;29;20811;-58
2021/11/09 00:29:39;;;;;;;12.70;12.30;;;20.20;99.50;;;;;;4955282;29;20477;-58
2021/11/09 00:32:07;;;;;;;12.10;11.70;;;20.10;99.80;;;;;;4955660;29;20499;-56
2021/11/09 00:34:34;;;;;;;11.90;11.40;;;20.00;99.90;;;;;;4955569;29;20449;-58
2021/11/09 00:37:01;;;;;;;12.57;12.17;;;20.00;99.90;;;;;;4955691;29;20848;-57
2021/11/09 00:39:28;;;;;;;12.00;11.53;;;19.90;99.90;;;;;;4955397;29;20468;-59
2021/11/09 00:41:56;;;;;;;11.90;11.50;;;19.90;99.90;;;;;;4955465;29;20449;-59
2021/11/09 00:44:23;;;;;;;11.50;11.20;;;19.80;99.90;;;;;;4956457;29;20481;-57
2021/11/09 00:46:51;;;;;;;11.83;11.33;;;19.80;99.90;;;;;;4956967;29;20973;-58
2021/11/09 00:49:18;;;;;;;11.37;11.07;;;19.80;99.90;;;;;;4957098;29;20476;-59
2021/11/09 00:51:45;;;;;;;11.30;10.90;;;19.80;99.90;;;;;;4957160;29;20445;-60
2021/11/09 00:54:12;;;;;;;11.80;11.30;;;19.70;99.90;;;;;;4957491;28;20456;-58
2021/11/09 00:56:38;;;;;;;11.60;11.20;;;19.70;99.90;;;;;;4956843;29;21059;-58
2021/11/09 00:59:07;;;;;;;11.20;10.90;;;19.70;99.90;;;;;;4959967;29;20464;-60
2021/11/09 01:01:34;;;;;;;10.93;10.60;;;19.60;99.90;;;;;;4956699;28;20452;-59
2021/11/09 01:04:01;;;;;;;11.73;11.23;;;19.60;99.90;;;;;;4955180;29;20456;-57
2021/11/09 01:06:28;;;;;;;11.20;10.90;;;19.60;99.90;;;;;;4954534;29;20460;-58
2021/11/09 01:08:54;;;;;;;11.50;10.90;;;19.60;99.90;;;;;;4954522;29;20577;-58
2021/11/09 01:11:22;;;;;;;12.07;11.57;;;19.50;99.90;;;;;;4954189;28;20505;-56
2021/11/09 01:13:50;;;;;;;11.77;11.37;;;19.60;99.90;;;;;;4954524;29;20452;-58
2021/11/09 01:16:19;;;;;;;11.43;11.03;;;19.50;99.90;;;;;;4954984;29;20441;-57
2021/11/09 01:18:49;;;;;;;11.53;11.07;;;19.50;99.90;;;;;;4954751;29;20531;-56
2021/11/09 01:21:18;;;;;;;11.93;11.43;;;19.50;99.90;;;;;;4954922;29;20474;-58
2021/11/09 01:23:45;;;;;;;12.47;11.87;;;19.50;99.90;;;;;;4955397;29;20471;-59
2021/11/09 01:26:14;;;;;;;11.97;11.67;;;19.40;99.90;;;;;;4954799;29;20489;-57
2021/11/09 01:28:42;;;;;;;11.20;10.80;;;19.40;99.90;;;;;;4955493;29;20463;-59
2021/11/09 01:31:09;;;;;;;11.07;10.67;;;19.40;99.90;;;;;;4955892;29;20476;-59
2021/11/09 01:33:38;;;;;;;11.80;11.40;;;19.30;99.90;;;;;;4955926;29;20444;-58
2021/11/09 01:36:06;;;;;;;11.77;11.27;;;19.30;99.90;;;;;;4956048;29;20452;-60
2021/11/09 01:38:33;;;;;;;10.97;10.60;;;19.30;99.90;;;;;;4954421;29;20453;-58
2021/11/09 01:41:01;;;;;;;11.67;11.27;;;19.40;99.90;;;;;;4954445;29;20484;-59
2021/11/09 01:43:30;;;;;;;11.90;11.50;;;19.30;99.90;;;;;;4954791;29;20508;-58
2021/11/09 01:45:59;;;;;;;11.07;10.67;;;19.30;99.90;;;;;;4954426;29;20488;-58
2021/11/09 01:48:26;;;;;;;11.53;10.97;;;19.30;99.90;;;;;;4954353;29;20449;-58
2021/11/09 01:50:58;;;;;;;11.97;11.47;;;19.30;99.90;;;;;;4953998;29;20499;-58
2021/11/09 01:53:27;;;;;;;11.53;11.13;;;19.20;99.90;;;;;;4954123;29;20515;-58
2021/11/09 01:55:57;;;;;;;12.33;11.73;;;19.30;99.90;;;;;;4954585;29;20516;-57
2021/11/09 01:58:24;;;;;;;11.53;11.13;;;19.30;99.90;;;;;;4954645;29;20462;-58
2021/11/09 02:00:54;;;;;;;11.30;10.90;;;19.20;99.90;;;;;;4954487;29;20799;-58
2021/11/09 02:03:22;;;;;;;11.77;11.37;;;19.30;99.90;;;;;;4954631;29;20955;-59
2021/11/09 02:05:50;;;;;;;10.90;10.50;;;19.20;99.90;;;;;;4954696;29;20848;-59
2021/11/09 02:08:19;;;;;;;11.90;11.50;;;19.20;99.90;;;;;;4954602;29;20459;-59
2021/11/09 02:10:48;;;;;;;11.37;11.07;;;19.20;99.90;;;;;;4954191;28;20476;-56
2021/11/09 02:13:17;;;;;;;11.10;10.80;;;19.20;99.90;;;;;;4954150;29;20463;-59
2021/11/09 02:15:44;;;;;;;11.33;10.83;;;19.10;99.90;;;;;;4953967;29;20816;-59
2021/11/09 02:18:14;;;;;;;11.60;11.00;;;19.10;99.90;;;;;;4954000;29;20448;-59
2021/11/09 02:20:48;;;;;;;11.97;11.47;;;19.10;99.90;;;;;;4954542;29;20471;-59
2021/11/09 02:23:15;;;;;;;11.33;10.93;;;19.10;99.90;;;;;;4955314;28;20455;-59
2021/11/09 02:25:42;;;;;;;11.57;11.13;;;19.00;99.90;;;;;;4957391;29;20484;-59
2021/11/09 02:28:09;;;;;;;11.43;10.93;;;19.00;99.90;;;;;;4958164;29;20480;-54
2021/11/09 02:30:35;;;;;;;11.23;10.83;;;19.00;99.90;;;;;;4957616;29;20480;-51
2021/11/09 02:33:03;;;;;;;11.37;11.07;;;19.00;99.90;;;;;;4956165;29;20453;-49
2021/11/09 02:35:30;;;;;;;11.60;11.20;;;19.00;99.90;;;;;;4956438;29;20448;-49
2021/11/09 02:37:59;;;;;;;11.53;11.13;;;18.90;99.90;;;;;;4956352;29;20826;-52
2021/11/09 02:40:26;;;;;;;11.13;10.73;;;19.00;99.90;;;;;;4956038;29;20476;-50
2021/11/09 02:42:56;;;;;;;12.00;11.50;;;19.00;99.90;;;;;;4955967;29;20459;-54
2021/11/09 02:45:33;;;;;;;11.60;11.20;;;19.00;99.90;;;;;;4956045;29;20480;-52
2021/11/09 02:48:03;;;;;;;11.70;11.30;;;19.00;99.90;;;;;;4956143;29;20939;-50
2021/11/09 02:50:34;;;;;;;12.40;12.00;;;19.00;99.90;;;;;;4956033;29;20479;-56
2021/11/09 02:53:05;;;;;;;10.93;10.63;;;19.00;99.90;;;;;;4955874;29;20883;-56
2021/11/09 02:55:36;;;;;;;11.37;11.00;;;19.00;99.90;;;;;;4956162;28;20476;-49
2021/11/09 02:58:11;;;;;;;11.83;11.33;;;18.90;99.90;;;;;;4956132;29;20449;-52
2021/11/09 03:00:47;;;;;;;10.57;10.27;;;18.90;99.90;;;;;;4955650;29;20479;-52
2021/11/09 03:03:17;;;;;;;11.20;10.80;;;18.90;99.90;;;;;;4955331;29;20828;-52
2021/11/09 03:05:48;;;;;;;10.60;10.20;;;18.90;99.90;;;;;;4955928;29;20848;-52
2021/11/09 03:08:27;;;;;;;11.20;10.63;;;18.80;99.90;;;;;;4955775;29;21010;-50
2021/11/09 03:10:54;;;;;;;11.00;10.60;;;18.80;99.90;;;;;;4955603;29;20513;-50
2021/11/09 03:13:22;;;;;;;11.93;11.57;;;18.80;99.90;;;;;;4955389;29;20449;-56
2021/11/09 03:15:50;;;;;;;10.80;10.50;;;18.80;99.90;;;;;;4955737;28;20464;-50
2021/11/09 03:18:19;;;;;;;11.57;11.10;;;18.80;99.90;;;;;;4955567;29;20495;-54
2021/11/09 03:20:52;;;;;;;10.83;10.53;;;18.70;99.90;;;;;;4955310;29;20564;-49
2021/11/09 03:45:28;;;;;;;12.03;11.57;;;18.70;99.90;;;;;;4955176;29;20515;-51
2021/11/09 03:48:03;;;;;;;12.10;11.70;;;18.50;99.90;;;;;;4955161;28;20457;-50
2021/11/09 03:50:30;;;;;;;11.10;10.70;;;18.60;99.90;;;;;;4954549;29;20483;-55
2021/11/09 03:52:59;;;;;;;10.93;10.53;;;18.60;99.90;;;;;;4954790;29;20449;-51
2021/11/09 03:55:37;;;;;;;11.30;10.80;;;18.60;99.90;;;;;;4954978;29;20451;-49
2021/11/09 03:58:08;;;;;;;11.33;10.93;;;18.60;99.90;;;;;;4954833;29;20456;-51
2021/11/09 04:00:41;;;;;;;11.17;10.87;;;18.50;99.90;;;;;;4954458;29;20468;-53
2021/11/09 04:03:16;;;;;;;10.97;10.50;;;18.50;99.90;;;;;;4954758;29;20468;-50
2021/11/09 04:05:45;;;;;;;12.00;11.60;;;18.50;99.90;;;;;;4954630;29;20488;-54
2021/11/09 04:08:18;;;;;;;10.87;10.57;;;18.50;99.90;;;;;;4954628;29;20456;-51
2021/11/09 04:10:53;;;;;;;11.47;10.80;;;18.60;99.90;;;;;;4954083;29;20527;-49
2021/11/09 04:13:27;;;;;;;11.57;11.17;;;18.40;99.90;;;;;;4954493;28;20492;-58
2021/11/09 04:18:54;;;;;;;10.90;10.57;;;18.50;99.90;;;;;;4930404;28;20953;-56
2021/11/09 04:21:42;;;;;;;10.07;9.77;;;18.40;99.90;;;;;;4954151;29;20456;-55
2021/11/09 04:24:26;;;;;;;11.23;10.73;;;18.40;99.90;;;;;;4954503;29;20455;-49
2021/11/09 04:27:04;;;;;;;11.13;10.73;;;18.50;99.90;;;;;;4954316;29;20512;-52
2021/11/09 04:29:48;;;;;;;10.07;9.77;;;18.40;99.90;;;;;;4953815;29;21005;-49
2021/11/09 04:49:23;;;;;;;10.67;10.27;;;18.60;99.90;;;;;;4953637;28;20428;-52
2021/11/09 05:03:00;;;;;;;12.33;11.83;;;18.70;99.90;;;;;;4945090;29;20556;-50
2021/11/09 05:08:30;;;;;;;11.47;11.00;;;18.70;99.90;;;;;;4934658;29;20449;-49
2021/11/09 05:10:59;;;;;;;11.97;11.57;;;18.70;99.90;;;;;;4934258;29;20476;-50
2021/11/09 05:13:26;;;;;;;11.63;11.23;;;18.70;99.90;;;;;;4953337;29;20460;-54
2021/11/09 05:15:55;;;;;;;11.90;11.40;;;18.80;99.90;;;;;;4953638;29;20456;-52
2021/11/09 05:18:23;;;;;;;11.57;11.10;;;18.70;99.90;;;;;;4953597;29;20455;-50
2021/11/09 05:20:50;;;;;;;11.90;11.50;;;18.70;99.90;;;;;;4953263;29;20541;-49
2021/11/09 05:23:17;;;;;;;12.33;11.93;;;18.70;99.90;;;;;;4953112;29;20456;-53
2021/11/09 05:25:44;;;;;;;12.90;12.23;;;18.70;99.90;;;;;;4953524;29;20480;-50
2021/11/09 05:28:12;;;;;;;12.70;11.93;;;18.70;99.90;;;;;;4953484;29;20793;-55
2021/11/09 05:30:40;;;;;;;12.20;11.80;;;18.80;99.90;;;;;;4952954;29;20492;-53
2021/11/09 05:33:08;;;;;;;13.00;12.50;;;18.70;99.90;;;;;;4953269;29;20455;-55
2021/11/09 05:35:35;;;;;;;12.30;11.90;;;18.80;99.90;;;;;;4953103;29;20445;-55
2021/11/09 05:38:04;;;;;;;11.93;11.53;;;18.70;99.90;;;;;;4953143;29;20942;-56
2021/11/09 05:40:33;;;;;;;12.77;12.27;;;18.80;99.90;;;;;;4953079;28;20979;-54
2021/11/09 05:43:01;;;;;;;12.80;12.30;;;18.70;99.90;;;;;;4952994;29;20453;-52
2021/11/09 05:45:28;;;;;;;13.70;12.90;;;18.70;99.90;;;;;;4953151;29;20487;-50
2021/11/09 05:47:56;;;;;;;12.33;11.33;;;18.80;99.90;;;;;;4953230;28;20986;-50
2021/11/09 05:50:24;;;;;;;13.03;12.20;;;18.90;99.90;;;;;;4952932;29;21004;-49
2021/11/09 05:52:51;;;;;;;13.33;12.20;;;18.90;99.90;;;;;;4952908;29;20545;-50
2021/11/09 05:55:18;;;;;;;14.57;13.37;;;19.50;99.90;;;;;;4953353;29;20451;-58
2021/11/09 05:57:46;;;;;;;13.70;12.33;;;20.10;99.90;;;;;;4956757;28;20448;-57
2021/11/09 06:00:14;;;;;;;15.23;13.97;;;20.60;99.90;;;;;;4958450;29;20479;-59
2021/11/09 06:02:42;;;;;;;15.63;14.13;;;20.80;99.90;;;;;;4958681;29;20452;-57
2021/11/09 06:05:09;;;;;;;15.40;13.97;;;21.00;99.90;;;;;;4958814;29;20448;-58
2021/11/09 06:07:38;;;;;;;16.00;14.13;;;21.10;99.90;;;;;;4958717;29;20493;-59
2021/11/09 06:10:06;;;;;;;14.03;12.73;;;21.20;99.90;;;;;;4958148;29;20468;-60
2021/11/09 06:12:33;;;;;;;19.50;13.40;;;21.30;99.90;;;;;;4957890;28;20452;-59
2021/11/09 06:15:00;;;;;;;18.97;13.07;;;21.20;99.90;;;;;;4957805;29;20444;-59
2021/11/09 06:17:26;;;;;;;20.30;12.90;;;21.10;99.90;;;;;;4958573;29;20476;-59
2021/11/09 06:19:53;;;;;;;10.83;9.83;;;21.00;99.90;;;;;;4961742;29;20472;-58
2021/11/09 06:22:20;;;;;;;14.40;11.27;;;20.80;99.90;;;;;;4962858;29;20444;-51
2021/11/09 06:24:48;;;;;;;11.33;10.17;;;20.80;99.90;;;;;;4962946;29;20461;-57
2021/11/09 06:27:16;;;;;;;15.27;11.37;;;20.80;99.90;;;;;;4962990;28;20488;-53
2021/11/09 06:29:43;;;;;;;15.53;11.57;;;20.80;99.90;;;;;;4962415;29;20606;-58
2021/11/09 06:32:10;;;;;;;12.07;11.10;;;20.70;99.90;;;;;;4962930;29;20457;-54
2021/11/09 06:34:37;;;;;;;13.60;12.20;;;20.70;99.90;;;;;;4962468;29;20459;-55
2021/11/09 06:37:04;;;;;;;11.07;10.17;;;20.60;99.90;;;;;;4963048;29;20448;-54
2021/11/09 06:39:31;;;;;;;17.23;12.60;;;20.60;99.90;;;;;;4962681;29;20464;-55
2021/11/09 06:41:59;;;;;;;11.63;10.50;;;20.50;99.90;;;;;;4963895;29;20457;-52
2021/11/09 06:44:26;;;;;;;12.00;10.50;;;20.50;99.90;;;;;;4964120;28;20448;-58
2021/11/09 06:46:52;;;;;;;12.20;11.43;;;20.50;99.90;;;;;;4963626;29;20480;-54
2021/11/09 06:49:19;;;;;;;14.40;12.87;;;20.40;99.90;;;;;;4962995;29;20878;-57
2021/11/09 06:51:46;;;;;;;11.83;10.90;;;20.40;99.90;;;;;;4963704;29;20475;-58
2021/11/09 06:54:13;;;;;;;11.67;10.63;;;20.40;99.90;;;;;;4963678;28;20449;-57
2021/11/09 06:56:40;;;;;;;11.53;10.73;;;20.30;99.90;;;;;;4962831;29;20789;-57
2021/11/09 06:59:09;;;;;;;12.63;11.50;;;20.30;99.90;;;;;;4961615;29;20449;-53
2021/11/09 07:01:36;;;;;;;20.23;13.20;;;20.30;99.90;;;;;;4961204;29;20479;-55
2021/11/09 07:04:03;;;;;;;12.53;11.60;;;20.20;99.90;;;;;;4961426;29;20452;-54
2021/11/09 07:06:30;;;;;;;12.17;11.20;;;20.20;99.90;;;;;;4960326;29;20480;-53
2021/11/09 07:08:57;;;;;;;13.07;11.83;;;20.20;99.90;;;;;;4959523;28;20480;-54
2021/11/09 07:11:25;;;;;;;12.50;11.50;;;20.20;99.90;;;;;;4960446;29;20448;-53
2021/11/09 07:13:52;;;;;;;11.47;10.57;;;20.10;99.90;;;;;;4960620;29;20449;-55
2021/11/09 07:16:20;;;;;;;12.70;11.70;;;20.10;99.90;;;;;;4960724;29;20673;-52
2021/11/09 07:18:46;;;;;;;11.77;11.07;;;20.10;99.90;;;;;;4961291;29;20456;-57
2021/11/09 07:21:13;;;;;;;14.53;13.10;;;20.00;99.90;;;;;;4961176;29;20469;-54
2021/11/09 07:23:40;;;;;;;12.57;11.60;;;20.00;99.90;;;;;;4961622;29;20457;-57
2021/11/09 07:26:06;;;;;;;12.53;11.63;;;20.00;99.90;;;;;;4961894;29;20555;-57
2021/11/09 07:28:33;;;;;;;12.30;11.50;;;20.00;99.90;;;;;;4962559;29;20456;-57
2021/11/09 07:31:02;;;;;;;12.20;11.20;;;20.00;99.90;;;;;;4963601;29;20472;-55
2021/11/09 07:33:32;;;;;;;11.23;10.73;;;19.90;99.90;;;;;;4962917;28;20449;-56
2021/11/09 07:35:59;;;;;;;13.63;12.63;;;19.80;99.90;;;;;;4964355;29;20523;-57
2021/11/09 07:38:26;;;;;;;12.70;11.80;;;19.80;99.90;;;;;;4964158;29;20441;-57
2021/11/09 07:40:53;;;;;;;11.80;11.10;;;19.70;99.90;;;;;;4963896;29;20465;-57
2021/11/09 07:43:20;;;;;;;12.40;11.60;;;19.70;99.90;;;;;;4962857;28;20459;-55
2021/11/09 07:45:47;;;;;;;16.20;14.30;;;19.60;99.90;;;;;;4960949;29;20448;-55
2021/11/09 07:48:14;;;;;;;13.07;12.07;;;19.60;99.90;;;;;;4961307;29;20472;-55
2021/11/09 07:50:43;;;;;;;13.10;12.13;;;19.60;99.90;;;;;;4959548;29;20476;-52
2021/11/09 07:53:15;;;;;;;12.63;11.70;;;19.60;99.90;;;;;;4959370;29;20448;-51
2021/11/09 07:55:47;;;;;;;11.07;10.37;;;19.50;99.90;;;;;;4960107;29;20805;-53
2021/11/09 07:58:17;;;;;;;12.60;11.70;;;19.50;99.90;;;;;;4960200;29;20507;-55
2021/11/09 08:00:50;;;;;;;12.73;12.03;;;19.50;99.90;;;;;;4959927;29;20469;-58
2021/11/09 08:03:19;;;;;;;12.27;11.40;;;19.40;99.90;;;;;;4959727;29;20484;-56
2021/11/09 08:06:09;;;;;;;13.40;12.50;;;19.40;99.90;;;;;;4960749;29;20454;-58
2021/11/09 08:08:39;;;;;;;12.90;12.00;;;19.40;99.90;;;;;;4960380;29;20797;-56
2021/11/09 08:11:06;;;;;;;13.13;12.17;;;19.40;99.90;;;;;;4959572;29;20500;-57
2021/11/09 08:13:32;;;;;;;12.07;11.43;;;19.40;99.90;;;;;;4961557;29;20453;-58
2021/11/09 08:15:59;;;;;;;13.07;12.47;;;19.30;99.90;;;;;;4961811;29;20448;-57
2021/11/09 08:18:26;;;;;;;12.60;11.97;;;19.20;99.90;;;;;;4960024;29;20444;-55
2021/11/09 08:20:54;;;;;;;12.60;11.97;;;19.20;99.90;;;;;;4960771;28;20556;-55
2021/11/09 08:23:21;;;;;;;13.83;12.83;;;19.10;99.90;;;;;;4960292;29;20456;-52
2021/11/09 08:25:48;;;;;;;12.53;11.50;;;19.10;99.90;;;;;;4959836;29;20444;-57
2021/11/09 08:28:15;;;;;;;12.07;11.27;;;19.10;99.90;;;;;;4960478;29;20852;-58
2021/11/09 08:30:41;;;;;;;12.07;11.30;;;19.00;99.90;;;;;;4960177;29;20492;-56
2021/11/09 08:33:08;;;;;;;12.27;11.47;;;19.00;99.90;;;;;;4959784;29;20479;-53
2021/11/09 08:35:36;;;;;;;12.30;11.80;;;19.00;99.90;;;;;;4959885;29;20451;-58
2021/11/09 08:38:06;;;;;;;11.87;11.30;;;18.90;99.90;;;;;;4960419;28;20464;-54
2021/11/09 08:40:34;;;;;;;12.60;11.80;;;18.90;99.90;;;;;;4959987;29;20472;-57
2021/11/09 08:43:02;;;;;;;12.80;12.00;;;18.90;99.90;;;;;;4960847;29;20467;-54
2021/11/09 08:45:34;;;;;;;12.17;11.43;;;18.90;99.90;;;;;;4961343;29;20548;-58
2021/11/09 08:48:08;;;;;;;11.73;11.07;;;18.80;99.90;;;;;;4961478;29;20543;-58
2021/11/09 08:50:35;;;;;;;11.77;11.03;;;18.80;99.90;;;;;;4961484;29;20548;-56
2021/11/09 08:53:07;;;;;;;11.37;10.70;;;18.80;99.90;;;;;;4961040;29;20449;-58
2021/11/09 08:55:44;;;;;;;12.70;11.80;;;18.90;99.90;;;;;;4961941;29;20565;-55
2021/11/09 08:58:32;;;;;;;11.17;10.77;;;18.90;99.90;;;;;;4961893;28;20503;-53
2021/11/09 09:06:35;;;;;;;12.73;12.03;;;18.90;99.90;;;;;;4960158;29;20483;-53
2021/11/09 09:09:04;;;;;;;11.63;11.10;;;18.90;99.90;;;;;;4959342;29;20453;-57
2021/11/09 09:11:31;;;;;;;11.60;11.10;;;19.00;99.90;;;;;;4959190;29;20449;-51
2021/11/09 09:13:58;;;;;;;12.27;11.77;;;18.90;99.90;;;;;;4960892;29;20452;-57
2021/11/09 09:16:25;;;;;;;10.97;10.57;;;18.90;99.90;;;;;;4961674;29;21022;-55
2021/11/09 09:18:53;;;;;;;10.90;10.40;;;18.90;99.90;;;;;;4961023;29;20452;-56
2021/11/09 09:21:24;;;;;;;11.23;10.73;;;18.90;99.90;;;;;;4961648;29;20491;-55
2021/11/09 09:23:53;;;;;;;11.57;11.10;;;18.90;99.90;;;;;;4962030;29;20921;-55
2021/11/09 09:26:32;;;;;;;11.47;10.80;;;18.90;99.90;;;;;;4961084;29;21107;-57
2021/11/09 09:29:12;;;;;;;10.40;10.00;;;18.90;99.90;;;;;;4962017;28;20476;-53
2021/11/09 09:31:50;;;;;;;11.33;10.73;;;18.90;99.90;;;;;;4963557;29;20447;-58
2021/11/09 09:53:53;;;;;;;12.40;11.70;;;18.90;99.90;;;;;;4962777;29;20432;-58
2021/11/09 09:56:22;;;;;;;11.30;10.80;;;19.00;99.90;;;;;;4963148;29;20542;-56
2021/11/09 09:58:50;;;;;;;11.17;10.60;;;18.90;99.90;;;;;;4962791;29;20543;-56
2021/11/09 10:01:17;;;;;;;10.90;10.50;;;19.00;99.90;;;;;;4962316;29;20464;-53
2021/11/09 10:03:44;;;;;;;11.13;10.63;;;18.90;99.90;;;;;;4961941;29;20980;-54
2021/11/09 10:06:11;;;;;;;11.40;10.77;;;19.00;99.90;;;;;;4962789;29;20444;-56
2021/11/09 10:08:40;;;;;;;13.03;12.33;;;18.90;99.90;;;;;;4962609;29;20492;-56
2021/11/09 10:11:07;;;;;;;12.00;11.50;;;19.00;99.90;;;;;;4963012;29;20990;-58
2021/11/09 10:13:40;;;;;;;11.97;11.47;;;19.00;99.90;;;;;;4963098;29;20448;-56
2021/11/09 10:16:16;;;;;;;11.40;11.10;;;19.00;99.90;;;;;;4960856;29;20817;-54
2021/11/09 10:18:44;;;;;;;11.80;11.10;;;19.00;99.90;;;;;;4959953;28;20884;-50
2021/11/09 10:21:12;;;;;;;9.90;9.60;;;19.00;99.90;;;;;;4960295;29;20491;-56
2021/11/09 10:23:40;;;;;;;11.50;11.00;;;19.10;99.90;;;;;;4958842;29;20452;-53
2021/11/09 10:26:13;;;;;;;11.87;11.47;;;19.20;99.90;;;;;;4959635;29;20449;-53
2021/11/09 10:28:40;;;;;;;11.70;11.30;;;19.20;99.90;;;;;;4959447;28;20480;-56
2021/11/09 10:31:11;;;;;;;12.67;12.17;;;19.20;99.90;;;;;;4960131;29;20482;-52
2021/11/09 10:33:40;;;;;;;11.77;11.37;;;19.30;99.90;;;;;;4960183;28;20449;-52
2021/11/09 10:36:16;;;;;;;11.37;10.97;;;19.30;99.90;;;;;;4959938;29;20448;-56
2021/11/09 10:38:44;;;;;;;11.57;11.27;;;19.40;99.90;;;;;;4960729;29;20464;-55
2021/11/09 10:41:11;;;;;;;11.90;11.30;;;19.50;99.90;;;;;;4960877;29;20484;-58
2021/11/09 10:43:38;;;;;;;12.70;12.30;;;19.50;99.90;;;;;;4961557;28;20484;-54
2021/11/09 10:46:05;;;;;;;12.00;11.50;;;19.60;99.90;;;;;;4966175;29;20491;-58
2021/11/09 10:48:35;;;;;;;12.87;12.30;;;19.80;99.90;;;;;;4966250;29;20511;-58
2021/11/09 10:51:03;;;;;;;12.77;12.27;;;19.90;99.90;;;;;;4965341;29;20472;-58
2021/11/09 10:53:40;;;;;;;12.20;11.80;;;20.10;99.90;;;;;;4965839;28;20449;-58
2021/11/09 10:56:15;;;;;;;11.70;11.20;;;20.30;99.90;;;;;;4966071;29;20785;-58
2021/11/09 11:04:14;;;;;;;12.83;12.43;;;21.30;99.80;;;;;;4963377;29;20421;-56
2021/11/09 11:06:44;;;;;;;12.90;12.40;;;21.60;98.60;;;;;;4962094;29;20449;-55
2021/11/09 11:09:22;;;;;;;12.63;12.13;;;21.90;97.30;;;;;;4961311;29;20461;-56
2021/11/09 11:11:51;;;;;;;12.30;12.00;;;22.50;95.90;;;;;;4960861;29;20452;-57
2021/11/09 11:14:20;;;;;;;13.17;12.77;;;23.70;92.70;;;;;;4960154;29;20487;-53
2021/11/09 11:16:50;;;;;;;13.47;13.03;;;24.80;86.70;;;;;;4959605;29;20517;-51
2021/11/09 11:19:20;;;;;;;14.10;13.43;;;25.50;78.20;;;;;;4958911;29;20997;-57
2021/11/09 11:21:48;;;;;;;15.30;14.80;;;26.20;71.50;;;;;;4959090;29;20448;-59
2021/11/09 11:24:15;;;;;;;13.67;13.17;;;26.60;66.30;;;;;;4958845;29;20447;-54
2021/11/09 11:26:44;;;;;;;14.00;13.40;;;26.60;62.90;;;;;;4958993;29;20452;-59
2021/11/09 11:29:15;;;;;;;14.53;14.03;;;26.80;61.20;;;;;;4959401;28;20496;-58
2021/11/09 11:31:42;;;;;;;13.90;13.30;;;26.80;59.50;;;;;;4960011;28;20449;-59
2021/11/09 11:34:09;;;;;;;13.83;13.43;;;26.80;58.90;;;;;;4960165;29;20448;-58
2021/11/09 11:36:37;;;;;;;14.20;13.63;;;26.80;58.50;;;;;;4960836;29;20455;-58
2021/11/09 11:39:06;;;;;;;14.63;14.03;;;26.80;57.90;;;;;;4959898;29;20456;-58
2021/11/09 11:41:36;;;;;;;13.27;12.80;;;26.80;57.60;;;;;;4956222;29;20449;-59
2021/11/09 11:44:06;;;;;;;13.70;13.20;;;26.90;57.40;;;;;;4954456;29;20463;-57
2021/11/09 11:47:00;;;;;;;13.53;13.10;;;26.80;58.90;;;;;;4956490;28;20445;-57
2021/11/09 11:49:45;;;;;;;14.20;13.80;;;26.90;59.50;;;;;;4954399;29;20712;-56
2021/11/09 11:52:24;;;;;;;13.70;13.20;;;26.90;60.60;;;;;;4955235;29;20452;-52
2021/11/09 11:55:04;;;;;;;14.93;14.33;;;26.80;63.30;;;;;;4935609;29;20453;-54
2021/11/09 11:57:41;;;;;;;15.23;14.63;;;26.50;65.80;;;;;;4945481;29;20540;-58
2021/11/09 12:00:29;;;;;;;15.10;14.40;;;26.00;68.20;;;;;;4954354;29;20472;-56
2021/11/09 12:02:57;;;;;;;14.90;14.40;;;25.70;71.10;;;;;;4954797;29;20531;-55
2021/11/09 12:05:41;;;;;;;14.27;13.67;;;25.50;73.20;;;;;;4954710;28;20448;-59
2021/11/09 12:08:12;;;;;;;14.10;13.50;;;25.20;74.90;;;;;;4954878;29;20488;-61
2021/11/09 12:10:48;;;;;;;14.77;14.17;;;24.90;77.40;;;;;;4953382;29;20476;-60
2021/11/09 12:13:17;;;;;;;14.37;13.77;;;25.10;78.60;;;;;;4956036;29;20459;-61
2021/11/09 12:15:49;;;;;;;14.00;13.30;;;25.50;76.70;;;;;;4955600;29;20859;-60
2021/11/09 12:18:41;;;;;;;13.00;12.50;;;25.90;74.30;;;;;;4956220;29;20508;-60
2021/11/09 12:21:33;;;;;;;14.07;13.57;;;25.60;73.00;;;;;;4956154;29;21025;-58
2021/11/09 12:24:19;;;;;;;13.87;13.27;;;25.60;73.60;;;;;;4956247;28;20449;-61
2021/11/09 12:26:50;;;;;;;12.93;12.50;;;25.20;73.70;;;;;;4956244;29;20449;-60
2021/11/09 12:29:46;;;;;;;13.60;13.10;;;25.50;73.60;;;;;;4955426;28;20563;-60
2021/11/09 12:32:35;;;;;;;12.83;12.33;;;25.40;72.20;;;;;;4956326;29;20453;-61
2021/11/09 12:35:11;;;;;;;13.50;13.00;;;25.00;73.70;;;;;;4956600;29;20452;-60
2021/11/09 12:37:40;;;;;;;13.30;12.80;;;24.70;74.30;;;;;;4956581;29;20519;-60
2021/11/09 12:40:30;;;;;;;13.13;12.63;;;24.60;75.10;;;;;;4956013;29;20998;-60
2021/11/09 12:43:05;;;;;;;14.53;14.03;;;24.50;75.60;;;;;;4955969;29;20451;-61
2021/11/09 12:45:32;;;;;;;12.77;12.37;;;24.00;76.30;;;;;;4955790;29;20455;-61
2021/11/09 12:48:01;;;;;;;13.27;12.50;;;23.70;78.00;;;;;;4956152;29;20484;-60
2021/11/09 12:50:28;;;;;;;13.50;13.00;;;23.60;79.30;;;;;;4956109;29;20468;-59
2021/11/09 12:53:07;;;;;;;14.37;13.87;;;23.50;80.00;;;;;;4956326;29;20451;-60
2021/11/09 12:55:36;;;;;;;14.03;13.43;;;23.50;80.30;;;;;;4956206;29;20459;-61
2021/11/09 12:58:18;;;;;;;14.23;13.63;;;23.50;80.30;;;;;;4956214;29;20488;-59
2021/11/09 13:00:49;;;;;;;13.10;12.70;;;23.50;80.40;;;;;;4954685;29;20859;-59
2021/11/09 13:03:26;;;;;;;12.33;11.93;;;23.50;80.40;;;;;;4954798;29;20452;-60
2021/11/09 13:05:55;;;;;;;13.00;12.60;;;23.50;80.20;;;;;;4954791;29;20484;-60
2021/11/09 13:08:29;;;;;;;13.80;13.30;;;23.50;80.80;;;;;;4954543;28;20484;-60
2021/11/09 13:10:58;;;;;;;12.70;12.30;;;23.60;79.80;;;;;;4954778;29;20471;-60
2021/11/09 13:13:25;;;;;;;12.70;12.30;;;23.70;79.20;;;;;;4955268;29;20483;-60
2021/11/09 13:15:52;;;;;;;13.20;12.70;;;23.80;78.90;;;;;;4955597;29;20480;-60
2021/11/09 13:18:20;;;;;;;13.00;12.60;;;23.80;78.00;;;;;;4955609;29;20452;-60
2021/11/09 13:20:52;;;;;;;13.30;12.90;;;23.90;77.50;;;;;;4955360;29;20479;-61
2021/11/09 13:23:21;;;;;;;14.07;13.57;;;24.00;76.90;;;;;;4955087;29;20871;-60
2021/11/09 13:25:50;;;;;;;12.30;11.90;;;24.00;76.40;;;;;;4955360;29;20869;-59
2021/11/09 13:28:24;;;;;;;13.50;13.10;;;23.90;76.20;;;;;;4955399;28;20571;-60
2021/11/09 13:30:53;;;;;;;13.33;12.93;;;23.90;75.90;;;;;;4955667;29;20484;-60
2021/11/09 13:33:23;;;;;;;12.87;12.37;;;24.00;75.80;;;;;;4956336;29;20795;-61
2021/11/09 13:35:50;;;;;;;13.27;12.87;;;24.00;75.60;;;;;;4956032;29;20452;-61
2021/11/09 13:38:19;;;;;;;12.03;11.60;;;24.00;75.30;;;;;;4956483;29;20451;-60
2021/11/09 13:40:48;;;;;;;12.60;12.20;;;24.00;75.30;;;;;;4955206;29;20469;-61
2021/11/09 13:43:18;;;;;;;13.10;12.70;;;24.00;74.90;;;;;;4954616;29;20449;-60
2021/11/09 13:45:46;;;;;;;13.13;12.73;;;24.00;74.80;;;;;;4954144;29;20542;-59
2021/11/09 13:48:15;;;;;;;12.20;11.87;;;23.90;74.70;;;;;;4953767;29;20575;-58
2021/11/09 13:50:44;;;;;;;13.00;12.57;;;23.90;74.80;;;;;;4953929;29;20469;-59
2021/11/09 13:53:11;;;;;;;12.30;11.90;;;23.90;74.90;;;;;;4954363;29;20455;-59
2021/11/09 13:55:40;;;;;;;13.20;12.70;;;23.80;75.00;;;;;;4954254;29;20453;-59
2021/11/09 13:58:09;;;;;;;13.00;12.60;;;23.80;75.30;;;;;;4953934;29;20440;-60
2021/11/09 14:00:43;;;;;;;13.40;12.90;;;23.70;75.50;;;;;;4953958;29;20531;-60
2021/11/09 14:03:19;;;;;;;11.60;11.30;;;23.40;76.20;;;;;;4954344;29;20922;-61
2021/11/09 14:08:59;;;;;;;13.43;13.07;;;23.10;78.20;;;;;;4953729;29;20483;-61
2021/11/09 14:11:41;;;;;;;13.00;12.70;;;23.00;79.10;;;;;;4954454;29;20535;-61